sensor_id;sensor_type;location;lat;lon;timestamp;pressure;altitude;pressure_sealevel;temperature;humidity
71772;BME280;59606;52.138;5.424;2023-05-11T00:01:11;101574.34;;;13.19;100.00
71772;BME280;59606;52.138;5.424;2023-05-11T00:03:38;101570.06;;;13.18;100.00
71772;BME280;59606;52.138;5.424;2023-05-11T00:06:04;101566.50;;;13.19;100.00
71772;BME280;59606;52.138;5.424;2023-05-11T00:08:31;101563.06;;;13.18;100.00
71772;BME280;59606;52.138;5.424;2023-05-11T00:10:57;101564.81;;;13.18;100.00
71772;BME280;59606;52.138;5.424;2023-05-11T00:13:26;101563.13;;;13.17;100.00
71772;BME280;59606;52.138;5.424;2023-05-11T00:15:53;101570.13;;;13.16;100.00
71772;BME280;59606;52.138;5.424;2023-05-11T00:18:20;101568.19;;;13.20;100.00
71772;BME280;59606;52.138;5.424;2023-05-11T00:20:46;101564.81;;;13.18;100.00
71772;BME280;59606;52.138;5.424;2023-05-11T00:23:13;101562.28;;;13.16;100.00
71772;BME280;59606;52.138;5.424;2023-05-11T00:25:39;101562.44;;;13.13;100.00
71772;BME280;59606;52.138;5.424;2023-05-11T00:28:06;101547.69;;;13.12;100.00
71772;BME280;59606;52.138;5.424;2023-05-11T00:30:32;101547.69;;;13.12;100.00
71772;BME280;59606;52.138;5.424;2023-05-11T00:32:59;101551.13;;;13.13;100.00
71772;BME280;59606;52.138;5.424;2023-05-11T00:35:25;101547.59;;;13.14;100.00
71772;BME280;59606;52.138;5.424;2023-05-11T00:37:52;101556.38;;;13.13;100.00
71772;BME280;59606;52.138;5.424;2023-05-11T00:40:19;101553.06;;;13.09;100.00
71772;BME280;59606;52.138;5.424;2023-05-11T00:42:45;101555.69;;;13.09;100.00
71772;BME280;59606;52.138;5.424;2023-05-11T00:45:12;101559.25;;;13.08;100.00
71772;BME280;59606;52.138;5.424;2023-05-11T00:47:39;101557.53;;;13.07;100.00
71772;BME280;59606;52.138;5.424;2023-05-11T00:57:33;101562.03;;;13.05;100.00
71772;BME280;59606;52.138;5.424;2023-05-11T01:00:02;101560.31;;;13.04;100.00
71772;BME280;59606;52.138;5.424;2023-05-11T01:02:30;101559.47;;;13.04;100.00
71772;BME280;59606;52.138;5.424;2023-05-11T01:04:58;101562.03;;;13.05;100.00
71772;BME280;59606;52.138;5.424;2023-05-11T01:15:24;101561.56;;;12.97;100.00
71772;BME280;59606;52.138;5.424;2023-05-11T01:18:01;101563.34;;;12.96;100.00
71772;BME280;59606;52.138;5.424;2023-05-11T01:20:33;101567.84;;;12.94;100.00
71772;BME280;59606;52.138;5.424;2023-05-11T01:25:51;101564.50;;;12.91;100.00
71772;BME280;59606;52.138;5.424;2023-05-11T01:31:28;101567.38;;;12.86;100.00
71772;BME280;59606;52.138;5.424;2023-05-11T01:34:00;101565.75;;;12.84;100.00
71772;BME280;59606;52.138;5.424;2023-05-11T01:36:33;101563.31;;;12.81;100.00
71772;BME280;59606;52.138;5.424;2023-05-11T01:39:05;101565.91;;;12.81;100.00
71772;BME280;59606;52.138;5.424;2023-05-11T01:41:34;101561.56;;;12.81;100.00
71772;BME280;59606;52.138;5.424;2023-05-11T01:44:05;101568.63;;;12.79;100.00
71772;BME280;59606;52.138;5.424;2023-05-11T01:46:33;101564.41;;;12.77;100.00
71772;BME280;59606;52.138;5.424;2023-05-11T01:49:05;101562.78;;;12.74;100.00
71772;BME280;59606;52.138;5.424;2023-05-11T01:51:36;101567.31;;;12.70;100.00
71772;BME280;59606;52.138;5.424;2023-05-11T01:54:05;101570.88;;;12.69;100.00
71772;BME280;59606;52.138;5.424;2023-05-11T01:56:34;101570.09;;;12.67;100.00
71772;BME280;59606;52.138;5.424;2023-05-11T01:59:02;101572.03;;;12.64;100.00
71772;BME280;59606;52.138;5.424;2023-05-11T02:01:29;101570.50;;;12.60;100.00
71772;BME280;59606;52.138;5.424;2023-05-11T02:03:59;101574.97;;;12.58;100.00
71772;BME280;59606;52.138;5.424;2023-05-11T02:06:28;101573.28;;;12.57;100.00
71772;BME280;59606;52.138;5.424;2023-05-11T02:08:55;101569.81;;;12.56;100.00
71772;BME280;59606;52.138;5.424;2023-05-11T02:11:25;101580.13;;;12.59;100.00
71772;BME280;59606;52.138;5.424;2023-05-11T02:13:54;101576.66;;;12.59;100.00
71772;BME280;59606;52.138;5.424;2023-05-11T02:16:23;101575.81;;;12.58;100.00
71772;BME280;59606;52.138;5.424;2023-05-11T02:18:51;101572.38;;;12.58;100.00
71772;BME280;59606;52.138;5.424;2023-05-11T02:21:19;101568.03;;;12.57;100.00
71772;BME280;59606;52.138;5.424;2023-05-11T02:23:46;101578.81;;;12.50;100.00
71772;BME280;59606;52.138;5.424;2023-05-11T02:26:14;101579.84;;;12.48;100.00
71772;BME280;59606;52.138;5.424;2023-05-11T02:28:42;101579.00;;;12.47;100.00
71772;BME280;59606;52.138;5.424;2023-05-11T02:31:13;101582.44;;;12.48;100.00
71772;BME280;59606;52.138;5.424;2023-05-11T02:33:46;101588.50;;;12.48;100.00
71772;BME280;59606;52.138;5.424;2023-05-11T02:36:20;101579.16;;;12.44;100.00
71772;BME280;59606;52.138;5.424;2023-05-11T02:38:49;101577.44;;;12.43;100.00
71772;BME280;59606;52.138;5.424;2023-05-11T02:41:25;101566.91;;;12.45;100.00
71772;BME280;59606;52.138;5.424;2023-05-11T02:43:54;101572.97;;;12.45;100.00
71772;BME280;59606;52.138;5.424;2023-05-11T02:46:25;101581.81;;;12.43;100.00
71772;BME280;59606;52.138;5.424;2023-05-11T02:48:57;101576.69;;;12.41;100.00
71772;BME280;59606;52.138;5.424;2023-05-11T02:51:30;101579.34;;;12.40;100.00
71772;BME280;59606;52.138;5.424;2023-05-11T02:53:58;101579.34;;;12.40;100.00
71772;BME280;59606;52.138;5.424;2023-05-11T02:56:24;101568.91;;;12.40;100.00
71772;BME280;59606;52.138;5.424;2023-05-11T02:58:51;101568.16;;;12.38;100.00
71772;BME280;59606;52.138;5.424;2023-05-11T03:01:19;101580.28;;;12.39;100.00
71772;BME280;59606;52.138;5.424;2023-05-11T03:03:45;101581.91;;;12.41;100.00
71772;BME280;59606;52.138;5.424;2023-05-11T03:06:12;101585.38;;;12.42;100.00
71772;BME280;59606;52.138;5.424;2023-05-11T03:08:40;101585.38;;;12.42;100.00
71772;BME280;59606;52.138;5.424;2023-05-11T03:11:08;101588.81;;;12.42;100.00
71772;BME280;59606;52.138;5.424;2023-05-11T03:13:35;101578.47;;;12.41;100.00
71772;BME280;59606;52.138;5.424;2023-05-11T03:16:01;101578.59;;;12.38;100.00
71772;BME280;59606;52.138;5.424;2023-05-11T03:18:29;101588.19;;;12.37;100.00
71772;BME280;59606;52.138;5.424;2023-05-11T03:20:58;101578.66;;;12.36;100.00
71772;BME280;59606;52.138;5.424;2023-05-11T03:23:27;101583.75;;;12.39;100.00
71772;BME280;59606;52.138;5.424;2023-05-11T03:25:53;101577.53;;;12.42;100.00
71772;BME280;59606;52.138;5.424;2023-05-11T03:28:21;101581.81;;;12.43;100.00
71772;BME280;59606;52.138;5.424;2023-05-11T03:30:51;101570.53;;;12.42;100.00
71772;BME280;59606;52.138;5.424;2023-05-11T03:33:18;101566.13;;;12.43;100.00
71772;BME280;59606;52.138;5.424;2023-05-11T03:35:48;101558.44;;;12.40;100.00
71772;BME280;59606;52.138;5.424;2023-05-11T03:38:17;101553.22;;;12.40;100.00
71772;BME280;59606;52.138;5.424;2023-05-11T03:40:48;101561.16;;;12.38;100.00
71772;BME280;59606;52.138;5.424;2023-05-11T03:43:18;101568.16;;;12.38;100.00
71772;BME280;59606;52.138;5.424;2023-05-11T03:45:47;101565.59;;;12.36;100.00
71772;BME280;59606;52.138;5.424;2023-05-11T03:48:16;101561.31;;;12.35;100.00
71772;BME280;59606;52.138;5.424;2023-05-11T03:50:43;101563.09;;;12.35;100.00
71772;BME280;59606;52.138;5.424;2023-05-11T03:53:11;101563.97;;;12.34;100.00
71772;BME280;59606;52.138;5.424;2023-05-11T03:55:38;101557.84;;;12.35;100.00
71772;BME280;59606;52.138;5.424;2023-05-11T03:58:09;101555.25;;;12.35;100.00
71772;BME280;59606;52.138;5.424;2023-05-11T04:00:38;101560.38;;;12.36;100.00
71772;BME280;59606;52.138;5.424;2023-05-11T04:03:05;101568.22;;;12.36;100.00
71772;BME280;59606;52.138;5.424;2023-05-11T04:05:33;101569.06;;;12.37;100.00
71772;BME280;59606;52.138;5.424;2023-05-11T04:07:59;101569.00;;;12.38;100.00
71772;BME280;59606;52.138;5.424;2023-05-11T04:10:27;101564.66;;;12.37;100.00
71772;BME280;59606;52.138;5.424;2023-05-11T04:12:53;101569.00;;;12.38;100.00
71772;BME280;59606;52.138;5.424;2023-05-11T04:15:20;101565.53;;;12.38;100.00
71772;BME280;59606;52.138;5.424;2023-05-11T04:17:47;101569.06;;;12.37;100.00
71772;BME280;59606;52.138;5.424;2023-05-11T04:20:13;101569.06;;;12.37;100.00
71772;BME280;59606;52.138;5.424;2023-05-11T04:22:40;101577.72;;;12.37;100.00
71772;BME280;59606;52.138;5.424;2023-05-11T04:25:07;101570.75;;;12.38;100.00
71772;BME280;59606;52.138;5.424;2023-05-11T04:27:33;101579.34;;;12.40;100.00
71772;BME280;59606;52.138;5.424;2023-05-11T04:30:00;101585.38;;;12.42;100.00
71772;BME280;59606;52.138;5.424;2023-05-11T04:32:27;101588.72;;;12.44;100.00
71772;BME280;59606;52.138;5.424;2023-05-11T04:34:54;101583.44;;;12.45;100.00
71772;BME280;59606;52.138;5.424;2023-05-11T04:37:21;101582.75;;;12.42;100.00
71772;BME280;59606;52.138;5.424;2023-05-11T04:39:47;101587.88;;;12.43;100.00
71772;BME280;59606;52.138;5.424;2023-05-11T04:42:14;101589.59;;;12.44;100.00
71772;BME280;59606;52.138;5.424;2023-05-11T04:44:40;101586.13;;;12.44;100.00
71772;BME280;59606;52.138;5.424;2023-05-11T04:47:07;101587.81;;;12.45;100.00
71772;BME280;59606;52.138;5.424;2023-05-11T04:49:33;101585.22;;;12.45;100.00
71772;BME280;59606;52.138;5.424;2023-05-11T04:52:00;101591.19;;;12.47;100.00
71772;BME280;59606;52.138;5.424;2023-05-11T04:54:26;101581.66;;;12.46;100.00
71772;BME280;59606;52.138;5.424;2023-05-11T04:56:53;101585.06;;;12.48;100.00
71772;BME280;59606;52.138;5.424;2023-05-11T04:59:19;101585.91;;;12.48;100.00
71772;BME280;59606;52.138;5.424;2023-05-11T05:01:46;101591.03;;;12.50;100.00
71772;BME280;59606;52.138;5.424;2023-05-11T05:04:12;101594.47;;;12.50;100.00
71772;BME280;59606;52.138;5.424;2023-05-11T05:06:39;101597.81;;;12.54;100.00
71772;BME280;59606;52.138;5.424;2023-05-11T05:09:05;101597.72;;;12.56;100.00
71772;BME280;59606;52.138;5.424;2023-05-11T05:11:32;101594.97;;;12.59;100.00
71772;BME280;59606;52.138;5.424;2023-05-11T05:13:59;101594.81;;;12.62;100.00
71772;BME280;59606;52.138;5.424;2023-05-11T05:16:25;101599.88;;;12.65;100.00
71772;BME280;59606;52.138;5.424;2023-05-11T05:18:52;101593.63;;;12.67;100.00
71772;BME280;59606;52.138;5.424;2023-05-11T05:21:18;101609.09;;;12.72;100.00
71772;BME280;59606;52.138;5.424;2023-05-11T05:23:45;101597.53;;;12.76;100.00
71772;BME280;59606;52.138;5.424;2023-05-11T05:26:11;101601.63;;;12.82;100.00
71772;BME280;59606;52.138;5.424;2023-05-11T05:28:38;101598.69;;;12.88;100.00
71772;BME280;59606;52.138;5.424;2023-05-11T05:31:04;101608.91;;;12.92;100.00
71772;BME280;59606;52.138;5.424;2023-05-11T05:33:31;101609.50;;;12.97;100.00
71772;BME280;59606;52.138;5.424;2023-05-11T05:35:59;101615.34;;;13.03;100.00
71772;BME280;59606;52.138;5.424;2023-05-11T05:38:25;101614.19;;;13.08;100.00
71772;BME280;59606;52.138;5.424;2023-05-11T05:40:52;101620.94;;;13.12;100.00
71772;BME280;59606;52.138;5.424;2023-05-11T05:43:19;101618.69;;;13.22;100.00
71772;BME280;59606;52.138;5.424;2023-05-11T05:45:45;101618.63;;;13.39;100.00
71772;BME280;59606;52.138;5.424;2023-05-11T05:48:13;101622.13;;;13.56;100.00
71772;BME280;59606;52.138;5.424;2023-05-11T05:50:39;101626.50;;;13.55;100.00
71772;BME280;59606;52.138;5.424;2023-05-11T05:53:06;101621.19;;;13.57;100.00
71772;BME280;59606;52.138;5.424;2023-05-11T05:55:33;101630.66;;;13.59;100.00
71772;BME280;59606;52.138;5.424;2023-05-11T05:57:59;101640.13;;;13.62;100.00
71772;BME280;59606;52.138;5.424;2023-05-11T06:00:26;101633.16;;;13.61;100.00
71772;BME280;59606;52.138;5.424;2023-05-11T06:02:52;101642.63;;;13.63;100.00
71772;BME280;59606;52.138;5.424;2023-05-11T06:05:19;101643.56;;;13.62;100.00
71772;BME280;59606;52.138;5.424;2023-05-11T06:07:46;101645.59;;;13.57;100.00
71772;BME280;59606;52.138;5.424;2023-05-11T06:10:27;101642.22;;;13.55;100.00
71772;BME280;59606;52.138;5.424;2023-05-11T06:12:53;101648.38;;;13.54;100.00
71772;BME280;59606;52.138;5.424;2023-05-11T06:15:20;101655.63;;;13.49;100.00
71772;BME280;59606;52.138;5.424;2023-05-11T06:17:46;101646.28;;;13.45;100.00
71772;BME280;59606;52.138;5.424;2023-05-11T06:20:13;101652.50;;;13.42;100.00
71772;BME280;59606;52.138;5.424;2023-05-11T06:22:39;101647.09;;;13.46;100.00
71772;BME280;59606;52.138;5.424;2023-05-11T06:25:08;101641.88;;;13.46;100.00
71772;BME280;59606;52.138;5.424;2023-05-11T06:27:34;101659.00;;;13.51;100.00
71772;BME280;59606;52.138;5.424;2023-05-11T06:30:00;101654.88;;;13.47;100.00
71772;BME280;59606;52.138;5.424;2023-05-11T06:32:27;101647.53;;;13.54;100.00
71772;BME280;59606;52.138;5.424;2023-05-11T06:34:53;101656.91;;;13.58;100.00
71772;BME280;59606;52.138;5.424;2023-05-11T06:37:20;101657.00;;;13.56;100.00
71772;BME280;59606;52.138;5.424;2023-05-11T06:39:47;101656.31;;;13.53;100.00
71772;BME280;59606;52.138;5.424;2023-05-11T06:42:13;101658.09;;;13.52;100.00
71772;BME280;59606;52.138;5.424;2023-05-11T06:44:40;101659.09;;;13.50;100.00
71772;BME280;59606;52.138;5.424;2023-05-11T06:47:07;101661.72;;;13.50;100.00
71772;BME280;59606;52.138;5.424;2023-05-11T06:49:33;101659.94;;;13.50;100.00
71772;BME280;59606;52.138;5.424;2023-05-11T06:52:00;101662.38;;;13.53;100.00
71772;BME280;59606;52.138;5.424;2023-05-11T06:54:27;101662.31;;;13.55;100.00
71772;BME280;59606;52.138;5.424;2023-05-11T06:56:53;101661.91;;;13.62;100.00
71772;BME280;59606;52.138;5.424;2023-05-11T06:59:19;101661.56;;;13.68;100.00
71772;BME280;59606;52.138;5.424;2023-05-11T07:01:46;101663.16;;;13.71;100.00
71772;BME280;59606;52.138;5.424;2023-05-11T07:04:12;101662.25;;;13.72;100.00
71772;BME280;59606;52.138;5.424;2023-05-11T07:06:39;101662.75;;;13.79;100.00
71772;BME280;59606;52.138;5.424;2023-05-11T07:09:07;101662.31;;;13.86;100.00
71772;BME280;59606;52.138;5.424;2023-05-11T07:11:34;101660.38;;;13.90;100.00
71772;BME280;59606;52.138;5.424;2023-05-11T07:14:00;101661.81;;;13.96;100.00
71772;BME280;59606;52.138;5.424;2023-05-11T07:16:27;101660.88;;;13.97;100.00
71772;BME280;59606;52.138;5.424;2023-05-11T07:18:54;101664.34;;;13.97;100.00
71772;BME280;59606;52.138;5.424;2023-05-11T07:21:20;101664.44;;;13.96;100.00
71772;BME280;59606;52.138;5.424;2023-05-11T07:23:47;101663.59;;;13.95;100.00
71772;BME280;59606;52.138;5.424;2023-05-11T07:26:14;101665.84;;;14.01;100.00
71772;BME280;59606;52.138;5.424;2023-05-11T07:28:40;101668.47;;;14.01;100.00
71772;BME280;59606;52.138;5.424;2023-05-11T07:31:09;101667.56;;;14.02;100.00
71772;BME280;59606;52.138;5.424;2023-05-11T07:33:37;101667.56;;;14.02;100.00
71772;BME280;59606;52.138;5.424;2023-05-11T07:36:05;101672.53;;;14.07;100.00
71772;BME280;59606;52.138;5.424;2023-05-11T07:38:31;101671.53;;;14.09;100.00
71772;BME280;59606;52.138;5.424;2023-05-11T07:40:58;101672.09;;;14.14;100.00
71772;BME280;59606;52.138;5.424;2023-05-11T07:43:25;101668.88;;;14.25;100.00
71772;BME280;59606;52.138;5.424;2023-05-11T07:45:52;101660.81;;;14.28;100.00
71772;BME280;59606;52.138;5.424;2023-05-11T07:48:18;101671.13;;;14.31;100.00
71772;BME280;59606;52.138;5.424;2023-05-11T07:50:44;101671.81;;;14.35;100.00
71772;BME280;59606;52.138;5.424;2023-05-11T07:53:11;101675.38;;;14.34;100.00
71772;BME280;59606;52.138;5.424;2023-05-11T07:55:39;101668.09;;;14.39;100.00
71772;BME280;59606;52.138;5.424;2023-05-11T07:58:06;101673.22;;;14.41;99.39
71772;BME280;59606;52.138;5.424;2023-05-11T08:00:33;101676.69;;;14.41;98.81
71772;BME280;59606;52.138;5.424;2023-05-11T08:03:00;101674.00;;;14.43;99.31
71772;BME280;59606;52.138;5.424;2023-05-11T08:05:28;101669.19;;;14.51;98.76
71772;BME280;59606;52.138;5.424;2023-05-11T08:07:55;101671.44;;;14.57;97.54
71772;BME280;59606;52.138;5.424;2023-05-11T08:10:22;101675.31;;;14.66;98.69
71772;BME280;59606;52.138;5.424;2023-05-11T08:12:48;101666.91;;;14.75;97.16
71772;BME280;59606;52.138;5.424;2023-05-11T08:15:17;101673.38;;;14.83;98.20
71772;BME280;59606;52.138;5.424;2023-05-11T08:17:44;101677.03;;;14.95;97.35
71772;BME280;59606;52.138;5.424;2023-05-11T08:20:12;101672.28;;;15.02;96.72
71772;BME280;59606;52.138;5.424;2023-05-11T08:22:38;101676.91;;;15.13;95.73
71772;BME280;59606;52.138;5.424;2023-05-11T08:25:05;101674.34;;;15.25;95.98
71772;BME280;59606;52.138;5.424;2023-05-11T08:27:32;101677.25;;;15.35;94.71
71772;BME280;59606;52.138;5.424;2023-05-11T08:29:58;101678.38;;;15.45;94.38
71772;BME280;59606;52.138;5.424;2023-05-11T08:32:28;101672.38;;;15.57;93.85
71772;BME280;59606;52.138;5.424;2023-05-11T08:34:55;101668.38;;;15.66;92.98
71772;BME280;59606;52.138;5.424;2023-05-11T08:37:22;101673.03;;;15.75;90.60
71772;BME280;59606;52.138;5.424;2023-05-11T08:39:49;101673.41;;;15.84;91.43
71772;BME280;59606;52.138;5.424;2023-05-11T08:42:16;101670.38;;;15.90;90.43
71772;BME280;59606;52.138;5.424;2023-05-11T08:44:45;101664.63;;;15.97;91.41
71772;BME280;59606;52.138;5.424;2023-05-11T08:47:13;101666.31;;;15.98;87.89
71772;BME280;59606;52.138;5.424;2023-05-11T08:49:43;101666.75;;;16.05;87.10
71772;BME280;59606;52.138;5.424;2023-05-11T08:52:11;101664.38;;;16.15;84.79
71772;BME280;59606;52.138;5.424;2023-05-11T08:54:39;101671.56;;;16.25;88.39
71772;BME280;59606;52.138;5.424;2023-05-11T08:57:05;101670.56;;;16.41;86.09
71772;BME280;59606;52.138;5.424;2023-05-11T08:59:33;101670.78;;;16.50;84.64
71772;BME280;59606;52.138;5.424;2023-05-11T09:02:00;101671.66;;;16.64;86.37
71772;BME280;59606;52.138;5.424;2023-05-11T09:04:29;101666.22;;;16.80;85.77
71772;BME280;59606;52.138;5.424;2023-05-11T09:06:57;101660.34;;;16.89;83.05
71772;BME280;59606;52.138;5.424;2023-05-11T09:09:23;101661.38;;;16.86;81.64
71772;BME280;59606;52.138;5.424;2023-05-11T09:11:50;101659.38;;;16.90;79.41
71772;BME280;59606;52.138;5.424;2023-05-11T09:14:17;101661.81;;;17.06;82.32
71772;BME280;59606;52.138;5.424;2023-05-11T09:16:44;101657.47;;;17.30;81.82
71772;BME280;59606;52.138;5.424;2023-05-11T09:19:13;101666.72;;;17.49;78.57
71772;BME280;59606;52.138;5.424;2023-05-11T09:21:41;101665.25;;;17.44;79.22
71772;BME280;59606;52.138;5.424;2023-05-11T09:24:10;101664.84;;;17.51;76.59
71772;BME280;59606;52.138;5.424;2023-05-11T09:26:37;101663.25;;;17.35;76.65
71772;BME280;59606;52.138;5.424;2023-05-11T09:29:03;101662.09;;;17.39;79.66
71772;BME280;59606;52.138;5.424;2023-05-11T09:31:41;101666.31;;;17.42;76.94
71772;BME280;59606;52.138;5.424;2023-05-11T09:34:19;101659.03;;;17.46;77.91
71772;BME280;59606;52.138;5.424;2023-05-11T09:36:53;101666.94;;;17.46;76.34
71772;BME280;59606;52.138;5.424;2023-05-11T09:39:31;101656.22;;;17.23;74.50
71772;BME280;59606;52.138;5.424;2023-05-11T09:42:17;101664.31;;;17.20;76.70
71772;BME280;59606;52.138;5.424;2023-05-11T09:44:45;101659.59;;;17.25;76.66
71772;BME280;59606;52.138;5.424;2023-05-11T09:47:14;101657.78;;;17.26;75.30
71772;BME280;59606;52.138;5.424;2023-05-11T09:49:45;101664.03;;;17.25;75.86
71772;BME280;59606;52.138;5.424;2023-05-11T09:52:15;101673.94;;;17.21;74.61
71772;BME280;59606;52.138;5.424;2023-05-11T09:54:46;101661.72;;;17.07;76.34
71772;BME280;59606;52.138;5.424;2023-05-11T09:57:28;101660.56;;;16.99;76.29
71772;BME280;59606;52.138;5.424;2023-05-11T09:59:58;101669.69;;;16.93;77.61
71772;BME280;59606;52.138;5.424;2023-05-11T10:02:29;101665.72;;;16.87;76.52
71772;BME280;59606;52.138;5.424;2023-05-11T10:04:58;101657.28;;;16.82;76.16
71772;BME280;59606;52.138;5.424;2023-05-11T10:07:28;101668.34;;;16.75;77.45
71772;BME280;59606;52.138;5.424;2023-05-11T10:09:57;101678.06;;;16.72;79.59
71772;BME280;59606;52.138;5.424;2023-05-11T10:12:28;101665.56;;;16.63;80.73
71772;BME280;59606;52.138;5.424;2023-05-11T10:15:08;101668.81;;;16.54;82.06
71772;BME280;59606;52.138;5.424;2023-05-11T10:17:36;101664.78;;;16.48;82.63
71772;BME280;59606;52.138;5.424;2023-05-11T10:20:04;101667.72;;;16.44;82.97
71772;BME280;59606;52.138;5.424;2023-05-11T10:22:32;101668.88;;;16.40;83.39
71772;BME280;59606;52.138;5.424;2023-05-11T10:24:59;101677.06;;;16.35;83.58
71772;BME280;59606;52.138;5.424;2023-05-11T10:27:26;101665.81;;;16.33;84.16
71772;BME280;59606;52.138;5.424;2023-05-11T10:29:53;101673.03;;;16.30;84.99
71772;BME280;59606;52.138;5.424;2023-05-11T10:32:19;101669.97;;;16.23;85.03
71772;BME280;59606;52.138;5.424;2023-05-11T10:34:47;101671.50;;;16.13;85.11
71772;BME280;59606;52.138;5.424;2023-05-11T10:37:17;101677.66;;;15.99;85.85
71772;BME280;59606;52.138;5.424;2023-05-11T10:39:44;101671.03;;;15.93;86.55
71772;BME280;59606;52.138;5.424;2023-05-11T10:42:34;101675.38;;;15.80;86.73
71772;BME280;59606;52.138;5.424;2023-05-11T10:45:26;101679.22;;;15.74;87.59
71772;BME280;59606;52.138;5.424;2023-05-11T10:48:47;101677.94;;;15.67;87.71
71772;BME280;59606;52.138;5.424;2023-05-11T10:51:24;101680.25;;;15.57;88.08
71772;BME280;59606;52.138;5.424;2023-05-11T10:56:57;101700.44;;;15.43;91.42
71772;BME280;59606;52.138;5.424;2023-05-11T11:02:36;101717.97;;;15.28;95.18
71772;BME280;59606;52.138;5.424;2023-05-11T11:05:03;101716.75;;;15.19;97.04
71772;BME280;59606;52.138;5.424;2023-05-11T11:07:58;101707.53;;;15.12;97.35
71772;BME280;59606;52.138;5.424;2023-05-11T11:10:44;101706.13;;;15.06;98.52
71772;BME280;59606;52.138;5.424;2023-05-11T11:13:17;101695.72;;;15.05;99.38
71772;BME280;59606;52.138;5.424;2023-05-11T11:18:25;101698.97;;;14.94;100.00
71772;BME280;59606;52.138;5.424;2023-05-11T11:20:54;101703.47;;;14.92;100.00
71772;BME280;59606;52.138;5.424;2023-05-11T11:26:13;101689.44;;;14.93;100.00
71772;BME280;59606;52.138;5.424;2023-05-11T11:31:24;101688.97;;;15.01;100.00
71772;BME280;59606;52.138;5.424;2023-05-11T11:33:52;101688.31;;;14.97;100.00
71772;BME280;59606;52.138;5.424;2023-05-11T11:42:10;101688.13;;;15.00;100.00
71772;BME280;59606;52.138;5.424;2023-05-11T11:44:38;101677.53;;;15.02;100.00
71772;BME280;59606;52.138;5.424;2023-05-11T11:47:22;101681.38;;;14.96;100.00
71772;BME280;59606;52.138;5.424;2023-05-11T11:49:50;101692.53;;;15.00;100.00
71772;BME280;59606;52.138;5.424;2023-05-11T11:54:55;101697.13;;;15.11;100.00
71772;BME280;59606;52.138;5.424;2023-05-11T12:00:05;101701.44;;;15.12;100.00
71772;BME280;59606;52.138;5.424;2023-05-11T12:02:44;101697.25;;;15.09;100.00
71772;BME280;59606;52.138;5.424;2023-05-11T12:05:15;101700.53;;;15.13;100.00
71772;BME280;59606;52.138;5.424;2023-05-11T12:07:52;101697.31;;;15.22;100.00
71772;BME280;59606;52.138;5.424;2023-05-11T12:10:20;101707.94;;;15.20;100.00
71772;BME280;59606;52.138;5.424;2023-05-11T12:12:47;101707.28;;;15.31;100.00
71772;BME280;59606;52.138;5.424;2023-05-11T12:15:25;101701.66;;;15.37;100.00
71772;BME280;59606;52.138;5.424;2023-05-11T12:17:53;101704.94;;;15.41;100.00
71772;BME280;59606;52.138;5.424;2023-05-11T12:20:20;101707.44;;;15.42;100.00
71772;BME280;59606;52.138;5.424;2023-05-11T12:22:47;101704.56;;;15.47;100.00
71772;BME280;59606;52.138;5.424;2023-05-11T12:25:16;101696.50;;;15.50;100.00
71772;BME280;59606;52.138;5.424;2023-05-11T12:30:25;101681.97;;;15.73;100.00
71772;BME280;59606;52.138;5.424;2023-05-11T12:32:52;101688.50;;;15.80;100.00
71772;BME280;59606;52.138;5.424;2023-05-11T12:35:27;101686.63;;;15.82;100.00
71772;BME280;59606;52.138;5.424;2023-05-11T12:37:54;101689.88;;;15.86;100.00
71772;BME280;59606;52.138;5.424;2023-05-11T12:40:22;101685.19;;;15.91;100.00
71772;BME280;59606;52.138;5.424;2023-05-11T12:42:57;101680.78;;;15.91;100.00
71772;BME280;59606;52.138;5.424;2023-05-11T12:45:26;101683.34;;;15.93;99.62
71772;BME280;59606;52.138;5.424;2023-05-11T12:47:53;101684.91;;;15.95;99.73
71772;BME280;59606;52.138;5.424;2023-05-11T12:50:21;101687.44;;;15.97;99.54
71772;BME280;59606;52.138;5.424;2023-05-11T12:52:49;101688.28;;;15.97;98.74
71772;BME280;59606;52.138;5.424;2023-05-11T12:55:29;101687.34;;;15.98;99.01
71772;BME280;59606;52.138;5.424;2023-05-11T12:58:06;101684.69;;;15.98;98.57
71772;BME280;59606;52.138;5.424;2023-05-11T13:00:33;101678.81;;;15.95;98.43
71772;BME280;59606;52.138;5.424;2023-05-11T13:03:00;101684.81;;;15.97;99.05
71772;BME280;59606;52.138;5.424;2023-05-11T13:05:27;101683.88;;;15.98;98.74
71772;BME280;59606;52.138;5.424;2023-05-11T13:08:00;101684.06;;;15.95;96.62
71772;BME280;59606;52.138;5.424;2023-05-11T13:10:27;101690.91;;;15.97;98.21
71772;BME280;59606;52.138;5.424;2023-05-11T13:12:54;101689.13;;;15.98;96.55
71772;BME280;59606;52.138;5.424;2023-05-11T13:15:22;101685.72;;;15.96;94.95
71772;BME280;59606;52.138;5.424;2023-05-11T13:18:00;101696.56;;;15.91;94.76
71772;BME280;59606;52.138;5.424;2023-05-11T13:20:32;101693.47;;;15.85;91.73
71772;BME280;59606;52.138;5.424;2023-05-11T13:25:49;101692.94;;;15.79;92.74
71772;BME280;59606;52.138;5.424;2023-05-11T13:28:21;101696.41;;;15.80;92.10
71772;BME280;59606;52.138;5.424;2023-05-11T13:30:56;101693.84;;;15.78;91.46
71772;BME280;59606;52.138;5.424;2023-05-11T13:33:24;101695.56;;;15.79;91.61
71772;BME280;59606;52.138;5.424;2023-05-11T13:35:51;101685.88;;;15.80;91.57
71772;BME280;59606;52.138;5.424;2023-05-11T13:38:18;101687.00;;;15.76;92.19
71772;BME280;59606;52.138;5.424;2023-05-11T13:40:44;101683.63;;;15.74;92.60
71772;BME280;59606;52.138;5.424;2023-05-11T13:43:11;101685.25;;;15.76;92.84